FW5345 Weather Reports


Display with metric or nautical units.
time (UTC)temp
F
wind
direction
speed
MPH
gust
MPH
rain 1hr
in
rain 24hr
in
rain mn
in
humidity
%
barometer
mb
20210615053115 56 357 0.0 0.0 0.00 0.31 0.24 82 1019.6
20210615051534 57 71 2.0 0.0 0.00 0.31 0.24 80 1019.9
20210615050034 58 68 2.0 0.0 0.00 0.32 0.24 75 1019.9
20210615044540 58 323 1.0 0.0 0.00 0.32 0.24 73 1019.6
20210615043042 58 271 1.0 0.0 0.00 0.33 0.24 74 1019.2
20210615041538 58 269 0.0 0.0 0.00 0.33 0.24 76 1019.2
20210615040033 58 47 1.0 0.0 0.00 0.33 0.24 76 1018.9
20210615034537 58 359 2.0 0.0 0.00 0.33 0.24 73 1018.9
20210615033037 59 346 2.0 0.0 0.00 0.34 0.24 71 1019.2
20210615031542 61 354 2.0 0.0 0.00 0.36 0.24 66 1018.9
20210615030055 62 319 4.0 0.0 0.00 0.36 0.24 64 1018.9
20210615024530 64 328 4.0 0.0 0.00 0.36 0.24 61 1018.5
20210615023042 64 309 3.0 0.0 0.00 0.43 0.24 59 1018.5
20210615021558 65 321 4.0 0.0 0.00 0.59 0.24 58 1018.5
20210615020038 66 257 4.0 0.0 0.00 0.59 0.24 59 1018.5
20210615014534 66 269 2.0 0.0 0.00 0.60 0.24 59 1018.5
20210615013039 65 274 2.0 0.0 0.00 0.63 0.24 61 1018.5
20210615011549 63 302 3.0 0.0 0.00 0.63 0.24 61 1018.5
20210615010038 63 289 5.0 0.0 0.00 0.63 0.24 63 1018.9
20210615004540 63 323 6.0 0.0 0.00 0.64 0.24 65 1018.5
20210615003041 63 284 3.0 0.0 0.00 0.72 0.24 65 1018.9
20210615001537 64 311 4.0 0.0 0.00 0.72 0.24 66 1018.9
20210615000048 66 294 4.0 0.0 0.00 0.72 0.24 69 1018.9
20210614234552 65 328 3.0 0.0 0.00 0.72 0.24 75 1018.9
20210614233040 61 4 4.0 0.0 0.00 0.72 0.24 79 1018.5
20210614231542 60 28 3.0 0.0 0.00 0.72 0.24 79 1018.9
20210614230039 60 321 4.0 0.0 0.00 0.72 0.24 75 1018.9
20210614224539 62 283 3.0 0.0 0.00 0.73 0.24 72 1018.9
20210614223041 63 275 2.0 0.0 0.00 0.73 0.24 75 1018.9
20210614221602 62 327 2.0 0.0 0.00 0.73 0.24 76 1018.5
20210614220036 62 329 2.0 0.0 0.00 0.73 0.24 76 1018.5
20210614214549 62 321 6.0 0.0 0.00 0.73 0.24 77 1018.2
20210614213036 63 318 5.0 0.0 0.00 0.73 0.24 77 1018.2
20210614211554 63 314 2.0 0.0 0.00 0.73 0.24 78 1018.2
20210614210045 63 307 3.0 0.0 0.00 0.73 0.24 80 1018.2
20210614204534 62 323 3.0 0.0 0.00 0.73 0.24 82 1018.2
20210614203034 62 295 3.0 0.0 0.00 0.73 0.24 84 1018.2
20210614201532 63 303 4.0 0.0 0.00 0.73 0.24 84 1018.2
20210614200033 64 355 3.0 0.0 0.00 0.73 0.24 88 1017.8
20210614194541 62 353 2.0 0.0 0.00 0.73 0.24 89 1018.2
20210614193036 61 1 1.0 0.0 0.01 0.73 0.24 92 1018.2
20210614191542 59 119 1.0 0.0 0.03 0.73 0.24 94 1018.2
20210614190034 57 127 3.0 0.0 0.03 0.73 0.24 97 1018.2
20210614184555 56 130 3.0 0.0 0.03 0.73 0.24 98 1018.2
20210614183048 56 148 3.0 0.0 0.02 0.73 0.23 97 1018.2
20210614181530 57 143 2.0 0.0 0.04 0.71 0.21 97 1017.8
20210614174535 56 143 2.0 0.0 0.11 0.71 0.21 98 1017.8
20210614173032 56 143 2.0 0.0 0.11 0.71 0.21 99 1017.8
20210614171530 56 260 0.0 0.0 0.07 0.67 0.17 99 1018.2
20210614170037 56 292 0.0 0.0 0.04 0.64 0.14 99 1017.8
20210614164604 56 354 0.0 0.0 0.00 0.60 0.10 99 1017.8
20210614163042 56 22 0.0 0.0 0.00 0.60 0.10 99 1017.8
20210614161538 56 22 1.0 0.0 0.01 0.60 0.10 99 1017.8
20210614160041 56 9 2.0 0.0 0.01 0.60 0.10 99 1017.8
20210614154529 56 322 1.0 0.0 0.01 0.60 0.10 99 1017.8
20210614153033 56 181 0.0 0.0 0.01 0.60 0.10 100 1017.4
20210614151532 56 175 1.0 0.0 0.00 0.59 0.09 100 1017.4
20210614150048 55 158 1.0 0.0 0.00 0.59 0.09 100 1017.1
20210614144533 55 135 1.0 0.0 0.00 0.59 0.09 100 1017.4
20210614143100 55 202 0.0 0.0 0.00 0.59 0.09 100 1017.4
20210614141547 54 202 0.0 0.0 0.00 0.59 0.09 100 1017.4
20210614140034 54 190 0.0 0.0 0.00 0.59 0.09 100 1017.1
20210614134534 54 85 0.0 0.0 0.00 0.59 0.09 100 1017.1
20210614133115 54 22 0.0 0.0 0.00 0.59 0.09 100 1017.1
20210614131545 54 22 0.0 0.0 0.00 0.59 0.09 100 1016.7
20210614130037 53 22 0.0 0.0 0.00 0.59 0.09 99 1016.7
20210614124533 53 22 0.0 0.0 0.00 0.59 0.09 99 1016.7
20210614123041 53 22 0.0 0.0 0.00 0.59 0.09 99 1016.7
20210614121542 53 22 0.0 0.0 0.00 0.59 0.09 99 1016.4
20210614120058 53 22 0.0 0.0 0.00 0.59 0.09 99 1016.4
20210614114530 53 23 1.0 0.0 0.00 0.59 0.09 99 1016.4
20210614113038 53 171 0.0 0.0 0.00 0.59 0.09 99 1016.4
20210614111534 53 155 1.0 0.0 0.00 0.59 0.09 99 1016.4
20210614110047 53 145 2.0 0.0 0.00 0.59 0.09 99 1016.4
20210614104534 53 144 0.0 0.0 0.00 0.59 0.09 99 1016.4
20210614103035 53 112 0.0 0.0 0.00 0.59 0.09 99 1016.4
20210614101529 53 112 2.0 0.0 0.00 0.59 0.09 99 1016.4
20210614100047 53 145 0.0 0.0 0.01 0.59 0.09 99 1016.4
20210614094530 53 157 0.0 0.0 0.01 0.59 0.09 99 1016.4
20210614093051 54 146 1.0 0.0 0.01 0.59 0.09 98 1016.0
20210614091532 54 117 0.0 0.0 0.05 0.59 0.09 98 1016.0
20210614090032 54 194 2.0 0.0 0.06 0.57 0.08 98 1016.0
20210614084545 54 140 1.0 0.0 0.06 0.59 0.08 98 1016.0
20210614083039 55 99 3.0 0.0 0.06 0.60 0.08 98 1016.4
20210614081540 55 159 1.0 0.0 0.02 0.56 0.04 98 1016.0
20210614080043 55 149 1.0 0.0 0.00 0.54 0.02 98 1015.7
20210614074548 55 240 0.0 0.0 0.02 0.54 0.02 98 1015.7
20210614073046 55 223 0.0 0.0 0.04 0.54 0.02 98 1015.7
20210614071531 55 65 1.0 0.0 0.04 0.54 0.02 98 1015.7
20210614070038 55 108 4.0 0.0 0.05 0.54 0.02 98 1016.0
20210614064609 56 161 2.0 0.0 0.04 0.52 0.52 98 1016.0
20210614063036 56 156 2.0 0.0 0.05 0.50 0.50 97 1016.0
20210614061620 56 85 0.0 0.0 0.05 0.50 0.50 97 1015.7
20210614060030 56 74 0.0 0.0 0.05 0.49 0.49 97 1016.0
20210614054529 56 69 2.0 0.0 0.04 0.48 0.48 97 1016.0